M I D A S
Marine Information and Data Acquisition System
Tripno 1882 of the Zeeleeuw from 2010-05-20 07:24:50 to 2010-05-20 13:17:42
Back to CruiseResearch ActivitiesStationsMapUnderway DataData graphs

EquipmentUnitsComment
TimeDGPSUTC
LatitudeDGPSDM.mWGS84
LongitudeDGPSDM.mWGS84
HeadingGyrodeg 
SOGDGPSknotsSpeed over ground
COGDGPSdegCourse over ground
DepthEcho soundermeters200 kHz
Missing or incorrect values are displayed as -999
Navigation data collected by the RV Zeeleeuw from 2010-05-20 06:15:02 to 2010-05-20 15:18:10
                                                                                    Next 1000 lines
Time Latitude Longitude Heading SOG COG Depth
2010-05-20 06:15:13 51°13.661 2°55.964 126.7 -999 254 -999
2010-05-20 06:15:17 51°13.661 2°55.964 126.6 -999 334 -999
2010-05-20 06:15:22 51°13.66 2°55.964 126.6 -999 24 -999
2010-05-20 06:15:27 51°13.66 2°55.964 126.6 -999 338 -999
2010-05-20 06:15:32 51°13.659 2°55.964 126.6 -999 268 -999
2010-05-20 06:15:37 51°13.659 2°55.964 126.6 -999 172 -999
2010-05-20 06:15:42 51°13.659 2°55.964 126.6 -999 216 -999
2010-05-20 06:15:47 51°13.659 2°55.964 126.6 -999 354 -999
2010-05-20 06:15:52 51°13.659 2°55.964 126.6 -999 22 -999
2010-05-20 06:15:57 51°13.659 2°55.964 126.6 -999 18 -999
2010-05-20 06:16:03 51°13.659 2°55.963 126.6 -999 358 -999
2010-05-20 06:16:07 51°13.659 2°55.963 126.6 -999 230 -999
2010-05-20 06:16:12 51°13.659 2°55.963 126.6 -999 359 -999
2010-05-20 06:16:17 51°13.659 2°55.963 126.6 -999 329 -999
2010-05-20 06:16:22 51°13.659 2°55.963 126.6 -999 283 -999
2010-05-20 06:16:27 51°13.659 2°55.963 126.5 -999 322 -999
2010-05-20 06:16:32 51°13.66 2°55.963 126.4 -999 1 -999
2010-05-20 06:16:37 51°13.66 2°55.962 126.4 -999 260 -999
2010-05-20 06:16:42 51°13.66 2°55.962 126.4 -999 355 -999
2010-05-20 06:16:48 51°13.661 2°55.962 126.4 -999 337 -999
2010-05-20 06:16:53 51°13.661 2°55.962 126.3 -999 168 -999
2010-05-20 06:16:58 51°13.661 2°55.962 126.3 -999 85 -999
2010-05-20 06:17:03 51°13.661 2°55.962 126.3 -999 319 -999
2010-05-20 06:17:08 51°13.661 2°55.961 126.3 -999 37 -999
2010-05-20 06:17:13 51°13.661 2°55.961 126.3 -999 337 -999
2010-05-20 06:17:18 51°13.661 2°55.961 126.3 -999 286 -999
2010-05-20 06:17:23 51°13.661 2°55.961 126.3 -999 156 -999
2010-05-20 06:17:28 51°13.661 2°55.961 126.3 -999 180 -999
2010-05-20 06:17:33 51°13.661 2°55.961 126.3 -999 236 -999
2010-05-20 06:17:38 51°13.662 2°55.961 126.3 -999 292 -999
2010-05-20 06:17:43 51°13.662 2°55.961 126.3 -999 235 -999
2010-05-20 06:17:48 51°13.662 2°55.961 126.3 -999 209 -999
2010-05-20 06:17:53 51°13.662 2°55.961 126.3 -999 211 -999
2010-05-20 06:17:58 51°13.662 2°55.961 126.3 -999 356 -999
2010-05-20 06:18:03 51°13.661 2°55.961 126.3 -999 187 -999
2010-05-20 06:18:08 51°13.661 2°55.961 126.3 -999 302 -999
2010-05-20 06:18:13 51°13.661 2°55.961 126.3 -999 204 -999
2010-05-20 06:18:18 51°13.661 2°55.961 126.3 -999 40 -999
2010-05-20 06:18:23 51°13.661 2°55.961 126.3 -999 333 -999
2010-05-20 06:18:28 51°13.661 2°55.961 126.3 -999 216 -999
2010-05-20 06:18:33 51°13.661 2°55.961 126.3 -999 203 -999
2010-05-20 06:18:38 51°13.661 2°55.961 126.3 -999 188 -999
2010-05-20 06:18:43 51°13.661 2°55.96 126.3 -999 71 -999
2010-05-20 06:18:48 51°13.661 2°55.96 126.3 -999 298 -999
2010-05-20 06:18:53 51°13.661 2°55.96 126.3 -999 316 -999
2010-05-20 06:18:58 51°13.661 2°55.96 126.3 -999 287 -999
2010-05-20 06:19:03 51°13.661 2°55.96 126.4 -999 239 -999
2010-05-20 06:19:07 51°13.66 2°55.96 126.4 -999 247 -999
2010-05-20 06:19:12 51°13.66 2°55.96 126.4 -999 261 -999
2010-05-20 06:19:18 51°13.66 2°55.96 126.4 -999 236 -999
2010-05-20 06:19:23 51°13.66 2°55.96 126.4 -999 283 -999
2010-05-20 06:19:28 51°13.661 2°55.96 126.4 -999 343 -999
2010-05-20 06:19:33 51°13.661 2°55.96 126.4 -999 71 -999
2010-05-20 06:19:38 51°13.661 2°55.96 126.4 -999 11 -999
2010-05-20 06:19:43 51°13.661 2°55.96 126.4 -999 245 -999
2010-05-20 06:19:48 51°13.661 2°55.96 126.3 -999 154 -999
2010-05-20 06:19:53 51°13.661 2°55.96 126.3 -999 181 -999
2010-05-20 06:19:58 51°13.661 2°55.96 126.2 -999 148 -999
2010-05-20 06:20:03 51°13.661 2°55.96 126.2 -999 52 -999
2010-05-20 06:20:08 51°13.661 2°55.96 126.2 -999 61 -999
2010-05-20 06:20:13 51°13.661 2°55.96 126.2 -999 58 -999
2010-05-20 06:20:18 51°13.661 2°55.96 126.2 -999 141 -999
2010-05-20 06:20:23 51°13.661 2°55.96 126.2 -999 267 -999
2010-05-20 06:20:28 51°13.661 2°55.96 126.2 -999 129 -999
2010-05-20 06:20:33 51°13.661 2°55.96 126.2 -999 190 -999
2010-05-20 06:20:38 51°13.661 2°55.96 126.2 -999 108 -999
2010-05-20 06:20:43 51°13.661 2°55.96 126.2 -999 165 -999
2010-05-20 06:20:48 51°13.661 2°55.96 126.2 -999 76 -999
2010-05-20 06:20:53 51°13.661 2°55.96 126.2 -999 246 -999
2010-05-20 06:20:58 51°13.661 2°55.96 126.2 -999 292 -999
2010-05-20 06:21:03 51°13.661 2°55.96 126.2 -999 231 -999
2010-05-20 06:21:08 51°13.661 2°55.96 126.2 -999 284 -999
2010-05-20 06:21:13 51°13.661 2°55.96 126 -999 54 -999
2010-05-20 06:21:17 51°13.661 2°55.96 125.9 -999 95 -999
2010-05-20 06:21:24 51°13.661 2°55.96 125.9 -999 264 -999
2010-05-20 06:21:29 51°13.661 2°55.96 125.9 -999 295 -999
2010-05-20 06:21:34 51°13.661 2°55.96 125.9 -999 296 -999
2010-05-20 06:21:39 51°13.661 2°55.96 125.9 -999 -999 -999
2010-05-20 06:21:44 51°13.661 2°55.96 125.8 -999 325 -999
2010-05-20 06:21:49 51°13.661 2°55.96 125.8 -999 281 -999
2010-05-20 06:21:54 51°13.661 2°55.96 125.7 -999 87 -999
2010-05-20 06:21:59 51°13.661 2°55.96 125.7 -999 219 -999
2010-05-20 06:22:04 51°13.661 2°55.96 125.7 -999 348 -999
2010-05-20 06:22:09 51°13.662 2°55.96 125.7 -999 341 -999
2010-05-20 06:22:14 51°13.662 2°55.96 125.7 -999 4 -999
2010-05-20 06:22:19 51°13.662 2°55.96 125.6 -999 352 -999
2010-05-20 06:22:24 51°13.662 2°55.96 125.7 -999 186 -999
2010-05-20 06:22:29 51°13.662 2°55.96 125.7 -999 298 -999
2010-05-20 06:22:34 51°13.662 2°55.96 125.7 -999 102 -999
2010-05-20 06:22:39 51°13.662 2°55.96 125.7 -999 228 -999
2010-05-20 06:22:44 51°13.662 2°55.96 125.7 -999 265 -999
2010-05-20 06:22:49 51°13.662 2°55.96 125.7 -999 303 -999
2010-05-20 06:22:54 51°13.662 2°55.96 125.7 -999 306 -999
2010-05-20 06:22:59 51°13.662 2°55.96 125.7 -999 21 -999
2010-05-20 06:23:04 51°13.662 2°55.96 125.6 -999 333 -999
2010-05-20 06:23:09 51°13.662 2°55.96 125.6 -999 214 -999
2010-05-20 06:23:14 51°13.662 2°55.96 125.6 -999 219 -999
2010-05-20 06:23:19 51°13.662 2°55.96 125.6 -999 253 -999
2010-05-20 06:23:24 51°13.662 2°55.96 125.5 -999 351 -999
2010-05-20 06:23:29 51°13.662 2°55.959 125.5 -999 268 -999
2010-05-20 06:23:34 51°13.662 2°55.959 125.5 -999 324 -999
2010-05-20 06:23:39 51°13.662 2°55.959 125.5 -999 38 -999
2010-05-20 06:23:44 51°13.662 2°55.959 125.5 -999 143 -999
2010-05-20 06:23:49 51°13.662 2°55.959 125.5 -999 185 -999
2010-05-20 06:23:54 51°13.662 2°55.959 125.5 -999 269 -999
2010-05-20 06:23:59 51°13.662 2°55.959 125.5 -999 38 -999
2010-05-20 06:24:04 51°13.662 2°55.959 125.5 -999 62 -999
2010-05-20 06:24:09 51°13.662 2°55.959 125.5 -999 221 -999
2010-05-20 06:24:14 51°13.662 2°55.959 125.3 -999 33 -999
2010-05-20 06:24:19 51°13.663 2°55.959 125.3 -999 341 -999
2010-05-20 06:24:24 51°13.663 2°55.959 125.3 -999 174 -999
2010-05-20 06:24:29 51°13.663 2°55.959 125.3 -999 65 -999
2010-05-20 06:24:34 51°13.663 2°55.959 125.3 -999 306 -999
2010-05-20 06:24:39 51°13.663 2°55.959 125.3 -999 274 -999
2010-05-20 06:24:44 51°13.663 2°55.959 125.3 -999 224 -999
2010-05-20 06:24:49 51°13.663 2°55.959 125.3 -999 204 -999
2010-05-20 06:24:54 51°13.663 2°55.959 125.3 -999 348 -999
2010-05-20 06:24:59 51°13.663 2°55.959 125.3 -999 287 -999
2010-05-20 06:25:04 51°13.663 2°55.959 125.4 -999 57 -999
2010-05-20 06:25:09 51°13.663 2°55.959 125.4 -999 209 -999
2010-05-20 06:25:14 51°13.663 2°55.959 125.4 -999 223 -999
2010-05-20 06:25:19 51°13.663 2°55.959 125.4 -999 182 -999
2010-05-20 06:25:24 51°13.663 2°55.959 125.4 -999 246 -999
2010-05-20 06:25:29 51°13.663 2°55.959 125.4 -999 130 -999
2010-05-20 06:25:34 51°13.663 2°55.959 125.4 -999 125 -999
2010-05-20 06:25:39 51°13.663 2°55.959 125.4 -999 19 -999
2010-05-20 06:25:44 51°13.663 2°55.959 125.4 -999 251 -999
2010-05-20 06:25:49 51°13.663 2°55.959 125.4 -999 83 -999
2010-05-20 06:25:54 51°13.663 2°55.959 125.4 -999 27 -999
2010-05-20 06:25:59 51°13.663 2°55.959 125.4 -999 -999 -999
2010-05-20 06:26:04 51°13.663 2°55.959 125.5 -999 284 -999
2010-05-20 06:26:09 51°13.664 2°55.959 125.5 -999 208 -999
2010-05-20 06:26:14 51°13.664 2°55.959 125.5 -999 242 -999
2010-05-20 06:26:19 51°13.664 2°55.959 125.5 -999 6 -999
2010-05-20 06:26:24 51°13.664 2°55.959 125.5 -999 219 -999
2010-05-20 06:26:29 51°13.664 2°55.959 125.5 -999 197 -999
2010-05-20 06:26:34 51°13.664 2°55.959 125.5 -999 305 -999
2010-05-20 06:26:39 51°13.664 2°55.959 125.5 -999 11 -999
2010-05-20 06:26:44 51°13.664 2°55.959 125.5 -999 249 -999
2010-05-20 06:26:49 51°13.664 2°55.959 125.5 -999 189 -999
2010-05-20 06:26:54 51°13.664 2°55.959 125.5 -999 169 -999
2010-05-20 06:26:59 51°13.664 2°55.959 125.5 -999 326 -999
2010-05-20 06:27:04 51°13.664 2°55.959 125.5 -999 342 -999
2010-05-20 06:27:09 51°13.664 2°55.959 125.6 -999 22 -999
2010-05-20 06:27:14 51°13.664 2°55.959 125.6 -999 197 -999
2010-05-20 06:27:19 51°13.664 2°55.959 125.6 -999 175 -999
2010-05-20 06:27:24 51°13.664 2°55.959 125.6 -999 309 -999
2010-05-20 06:27:29 51°13.664 2°55.959 125.7 -999 283 -999
2010-05-20 06:27:34 51°13.664 2°55.959 125.7 -999 333 -999
2010-05-20 06:27:39 51°13.664 2°55.959 125.8 -999 155 -999
2010-05-20 06:27:44 51°13.664 2°55.959 125.8 -999 41 -999
2010-05-20 06:27:49 51°13.664 2°55.959 125.8 -999 272 -999
2010-05-20 06:27:54 51°13.664 2°55.959 125.8 -999 222 -999
2010-05-20 06:27:59 51°13.664 2°55.959 125.8 -999 208 -999
2010-05-20 06:28:04 51°13.664 2°55.959 125.8 -999 88 -999
2010-05-20 06:28:09 51°13.664 2°55.959 125.8 -999 301 -999
2010-05-20 06:28:14 51°13.664 2°55.959 125.8 -999 310 -999
2010-05-20 06:28:19 51°13.664 2°55.959 125.8 -999 252 -999
2010-05-20 06:28:24 51°13.663 2°55.959 125.8 -999 287 -999
2010-05-20 06:28:29 51°13.663 2°55.959 125.8 -999 212 -999
2010-05-20 06:28:34 51°13.663 2°55.959 125.8 -999 342 -999
2010-05-20 06:28:39 51°13.663 2°55.959 125.8 -999 271 -999
2010-05-20 06:28:44 51°13.663 2°55.959 125.8 -999 42 -999
2010-05-20 06:28:49 51°13.663 2°55.959 125.8 -999 331 -999
2010-05-20 06:28:54 51°13.663 2°55.959 125.8 -999 349 -999
2010-05-20 06:28:59 51°13.663 2°55.959 125.8 -999 321 -999
2010-05-20 06:29:04 51°13.663 2°55.959 125.7 -999 212 -999
2010-05-20 06:29:09 51°13.663 2°55.96 125.7 -999 216 -999
2010-05-20 06:29:14 51°13.663 2°55.96 125.7 -999 46 -999
2010-05-20 06:29:19 51°13.663 2°55.96 125.7 -999 307 -999
2010-05-20 06:29:24 51°13.663 2°55.96 125.7 -999 11 -999
2010-05-20 06:29:29 51°13.663 2°55.96 125.7 -999 269 -999
2010-05-20 06:29:34 51°13.663 2°55.96 125.7 -999 184 -999
2010-05-20 06:29:39 51°13.663 2°55.96 125.8 -999 267 -999
2010-05-20 06:29:44 51°13.663 2°55.96 125.8 -999 27 -999
2010-05-20 06:29:49 51°13.663 2°55.96 125.8 -999 28 -999
2010-05-20 06:29:54 51°13.663 2°55.96 125.8 -999 34 -999
2010-05-20 06:29:59 51°13.663 2°55.96 125.8 -999 296 -999
2010-05-20 06:30:04 51°13.663 2°55.96 125.7 -999 226 -999
2010-05-20 06:30:09 51°13.663 2°55.96 125.7 -999 310 -999
2010-05-20 06:30:14 51°13.663 2°55.96 125.7 -999 230 -999
2010-05-20 06:30:19 51°13.663 2°55.96 125.7 -999 297 -999
2010-05-20 06:30:24 51°13.663 2°55.96 125.7 -999 231 -999
2010-05-20 06:30:29 51°13.663 2°55.96 125.7 -999 155 -999
2010-05-20 06:30:34 51°13.663 2°55.96 125.7 -999 258 -999
2010-05-20 06:30:39 51°13.663 2°55.96 125.7 -999 25 -999
2010-05-20 06:30:44 51°13.663 2°55.96 125.7 -999 9 -999
2010-05-20 06:30:49 51°13.663 2°55.96 125.7 -999 255 -999
2010-05-20 06:30:54 51°13.663 2°55.96 125.7 -999 263 -999
2010-05-20 06:30:59 51°13.663 2°55.96 125.7 -999 85 -999
2010-05-20 06:31:04 51°13.663 2°55.96 125.7 -999 130 -999
2010-05-20 06:31:09 51°13.663 2°55.96 125.7 -999 264 -999
2010-05-20 06:31:14 51°13.663 2°55.96 125.7 -999 260 -999
2010-05-20 06:31:19 51°13.663 2°55.96 125.7 -999 309 -999
2010-05-20 06:31:24 51°13.663 2°55.96 125.7 -999 233 -999
2010-05-20 06:31:29 51°13.663 2°55.96 125.7 -999 55 -999
2010-05-20 06:31:34 51°13.663 2°55.96 125.7 -999 279 -999
2010-05-20 06:31:39 51°13.663 2°55.96 125.7 -999 346 -999
2010-05-20 06:31:44 51°13.663 2°55.96 125.7 -999 196 -999
2010-05-20 06:31:49 51°13.663 2°55.96 125.7 -999 162 -999
2010-05-20 06:31:54 51°13.663 2°55.96 125.7 -999 250 -999
2010-05-20 06:31:59 51°13.663 2°55.96 125.7 -999 14 -999
2010-05-20 06:32:04 51°13.663 2°55.96 125.7 -999 262 -999
2010-05-20 06:32:09 51°13.663 2°55.96 125.7 -999 255 -999
2010-05-20 06:32:14 51°13.663 2°55.959 125.7 -999 189 -999
2010-05-20 06:32:19 51°13.663 2°55.959 125.7 -999 243 -999
2010-05-20 06:32:24 51°13.663 2°55.959 125.7 -999 20 -999
2010-05-20 06:32:29 51°13.663 2°55.959 125.7 -999 215 -999
2010-05-20 06:32:34 51°13.663 2°55.959 125.6 -999 352 -999
2010-05-20 06:32:39 51°13.663 2°55.959 125.6 -999 246 -999
2010-05-20 06:32:44 51°13.663 2°55.959 125.7 -999 23 -999
2010-05-20 06:32:49 51°13.663 2°55.959 125.7 -999 39 -999
2010-05-20 06:32:54 51°13.663 2°55.959 125.7 -999 264 -999
2010-05-20 06:32:59 51°13.663 2°55.959 125.7 -999 44 -999
2010-05-20 06:33:04 51°13.663 2°55.959 125.7 -999 292 -999
2010-05-20 06:33:09 51°13.663 2°55.959 125.7 -999 333 -999
2010-05-20 06:33:14 51°13.663 2°55.959 125.7 -999 55 -999
2010-05-20 06:33:19 51°13.663 2°55.959 125.7 -999 225 -999
2010-05-20 06:33:24 51°13.663 2°55.959 125.7 -999 258 -999
2010-05-20 06:33:29 51°13.663 2°55.959 125.7 -999 338 -999
2010-05-20 06:33:34 51°13.663 2°55.959 125.7 -999 271 -999
2010-05-20 06:33:39 51°13.663 2°55.959 125.7 -999 6 -999
2010-05-20 06:33:44 51°13.663 2°55.959 125.7 -999 293 -999
2010-05-20 06:33:49 51°13.663 2°55.959 125.7 -999 140 -999
2010-05-20 06:33:54 51°13.663 2°55.959 125.7 -999 101 -999
2010-05-20 06:33:59 51°13.663 2°55.959 125.7 -999 92 -999
2010-05-20 06:34:04 51°13.663 2°55.959 125.7 -999 154 -999
2010-05-20 06:34:09 51°13.663 2°55.959 125.7 -999 327 -999
2010-05-20 06:34:14 51°13.663 2°55.959 125.7 -999 230 -999
2010-05-20 06:34:19 51°13.663 2°55.959 125.7 -999 319 -999
2010-05-20 06:34:24 51°13.663 2°55.959 125.7 -999 17 -999
2010-05-20 06:34:29 51°13.663 2°55.959 125.7 -999 221 -999
2010-05-20 06:34:34 51°13.663 2°55.959 125.7 -999 30 -999
2010-05-20 06:34:39 51°13.663 2°55.959 125.7 -999 121 -999
2010-05-20 06:34:44 51°13.663 2°55.959 125.6 -999 278 -999
2010-05-20 06:34:49 51°13.663 2°55.959 125.6 -999 11 -999
2010-05-20 06:34:54 51°13.663 2°55.959 125.5 -999 250 -999
2010-05-20 06:34:59 51°13.663 2°55.959 125.5 -999 261 -999
2010-05-20 06:35:04 51°13.663 2°55.959 125.5 -999 214 -999
2010-05-20 06:35:09 51°13.663 2°55.959 125.5 -999 62 -999
2010-05-20 06:35:14 51°13.663 2°55.959 125.5 -999 282 -999
2010-05-20 06:35:19 51°13.663 2°55.959 125.5 -999 312 -999
2010-05-20 06:35:24 51°13.663 2°55.959 125.5 -999 314 -999
2010-05-20 06:35:29 51°13.663 2°55.959 125.5 -999 243 -999
2010-05-20 06:35:34 51°13.663 2°55.959 125.5 -999 303 -999
2010-05-20 06:35:39 51°13.663 2°55.959 125.3 -999 82 -999
2010-05-20 06:35:44 51°13.663 2°55.959 125.3 -999 128 -999
2010-05-20 06:35:49 51°13.663 2°55.959 125.2 -999 211 -999
2010-05-20 06:35:54 51°13.663 2°55.959 125.2 -999 166 -999
2010-05-20 06:35:59 51°13.663 2°55.959 125.2 -999 228 -999
2010-05-20 06:36:04 51°13.663 2°55.959 125.2 -999 199 -999
2010-05-20 06:36:09 51°13.663 2°55.959 125.2 -999 50 -999
2010-05-20 06:36:14 51°13.663 2°55.959 125.2 -999 210 -999
2010-05-20 06:36:19 51°13.663 2°55.959 125.2 -999 87 -999
2010-05-20 06:36:24 51°13.663 2°55.959 125.2 -999 196 -999
2010-05-20 06:36:29 51°13.663 2°55.959 125.2 -999 130 -999
2010-05-20 06:36:34 51°13.663 2°55.959 125.2 -999 316 -999
2010-05-20 06:36:39 51°13.663 2°55.959 125.2 -999 217 -999
2010-05-20 06:36:44 51°13.663 2°55.959 125.3 -999 27 -999
2010-05-20 06:36:49 51°13.663 2°55.959 125.3 -999 170 -999
2010-05-20 06:36:54 51°13.663 2°55.959 125.3 -999 159 -999
2010-05-20 06:36:59 51°13.663 2°55.959 125.3 -999 200 -999
2010-05-20 06:37:04 51°13.663 2°55.959 125.3 -999 135 -999
2010-05-20 06:37:09 51°13.663 2°55.959 125.3 -999 272 -999
2010-05-20 06:37:14 51°13.663 2°55.959 125.3 -999 326 -999
2010-05-20 06:37:19 51°13.663 2°55.959 125.3 -999 345 -999
2010-05-20 06:37:24 51°13.663 2°55.959 125.3 -999 277 -999
2010-05-20 06:37:29 51°13.663 2°55.959 125.3 -999 5 -999
2010-05-20 06:37:34 51°13.663 2°55.959 125.4 -999 186 -999
2010-05-20 06:37:39 51°13.663 2°55.959 125.4 -999 53 -999
2010-05-20 06:37:44 51°13.663 2°55.959 125.4 -999 34 -999
2010-05-20 06:37:49 51°13.663 2°55.959 125.4 -999 253 -999
2010-05-20 06:37:54 51°13.663 2°55.959 125.4 -999 332 -999
2010-05-20 06:37:59 51°13.663 2°55.959 125.4 -999 11 -999
2010-05-20 06:38:04 51°13.663 2°55.959 125.3 -999 73 -999
2010-05-20 06:38:09 51°13.662 2°55.959 125.3 -999 228 -999
2010-05-20 06:38:14 51°13.662 2°55.959 125.3 -999 10 -999
2010-05-20 06:38:19 51°13.662 2°55.959 125.2 -999 126 -999
2010-05-20 06:38:24 51°13.662 2°55.959 125.2 -999 161 -999
2010-05-20 06:38:29 51°13.662 2°55.959 125.2 -999 174 -999
2010-05-20 06:38:34 51°13.662 2°55.959 125.2 -999 13 -999
2010-05-20 06:38:39 51°13.662 2°55.959 125.3 -999 342 -999
2010-05-20 06:38:44 51°13.662 2°55.959 125.5 -999 12 -999
2010-05-20 06:38:49 51°13.662 2°55.959 125.5 -999 22 -999
2010-05-20 06:38:54 51°13.662 2°55.959 125.5 -999 218 -999
2010-05-20 06:38:59 51°13.662 2°55.959 125.6 -999 251 -999
2010-05-20 06:39:04 51°13.662 2°55.959 125.5 -999 238 -999
2010-05-20 06:39:09 51°13.662 2°55.959 125.5 -999 222 -999
2010-05-20 06:39:14 51°13.662 2°55.959 125.4 -999 335 -999
2010-05-20 06:39:19 51°13.662 2°55.959 125.4 -999 351 -999
2010-05-20 06:39:24 51°13.662 2°55.959 125.3 -999 243 -999
2010-05-20 06:39:29 51°13.662 2°55.959 125.3 -999 343 -999
2010-05-20 06:39:34 51°13.662 2°55.959 125.3 -999 4 -999
2010-05-20 06:39:39 51°13.662 2°55.959 125.3 -999 219 -999
2010-05-20 06:39:44 51°13.662 2°55.959 125.3 -999 123 -999
2010-05-20 06:39:49 51°13.662 2°55.959 125.3 -999 278 -999
2010-05-20 06:39:54 51°13.662 2°55.959 125.3 -999 14 -999
2010-05-20 06:39:59 51°13.662 2°55.959 125.3 -999 298 -999
2010-05-20 06:40:04 51°13.662 2°55.959 125.3 -999 13 -999
2010-05-20 06:40:09 51°13.662 2°55.959 125.3 -999 20 -999
2010-05-20 06:40:14 51°13.662 2°55.959 125.3 -999 88 -999
2010-05-20 06:40:19 51°13.662 2°55.959 125.3 -999 357 -999
2010-05-20 06:40:24 51°13.662 2°55.959 125.3 -999 100 -999
2010-05-20 06:40:29 51°13.662 2°55.959 125.3 -999 356 -999
2010-05-20 06:40:34 51°13.661 2°55.959 125.3 -999 61 -999
2010-05-20 06:40:39 51°13.661 2°55.959 125.3 -999 271 -999
2010-05-20 06:40:44 51°13.661 2°55.959 125.3 -999 210 -999
2010-05-20 06:40:49 51°13.661 2°55.959 125.3 -999 22 -999
2010-05-20 06:40:54 51°13.661 2°55.959 125.3 -999 264 -999
2010-05-20 06:40:59 51°13.661 2°55.959 125.3 -999 57 -999
2010-05-20 06:41:04 51°13.661 2°55.959 125.3 -999 248 -999
2010-05-20 06:41:09 51°13.661 2°55.959 125.3 -999 34 -999
2010-05-20 06:41:14 51°13.661 2°55.959 125.3 -999 291 -999
2010-05-20 06:41:19 51°13.661 2°55.959 125.3 -999 343 -999
2010-05-20 06:41:24 51°13.661 2°55.959 125.3 -999 13 -999
2010-05-20 06:41:29 51°13.661 2°55.958 125.3 -999 243 -999
2010-05-20 06:41:34 51°13.661 2°55.959 125.3 -999 342 -999
2010-05-20 06:41:39 51°13.661 2°55.959 125.3 -999 346 -999
2010-05-20 06:41:44 51°13.661 2°55.959 125.3 -999 11 -999
2010-05-20 06:41:49 51°13.661 2°55.959 125.3 -999 270 -999
2010-05-20 06:41:54 51°13.661 2°55.959 125.3 -999 257 -999
2010-05-20 06:41:59 51°13.661 2°55.959 125.3 -999 10 -999
2010-05-20 06:42:04 51°13.661 2°55.959 125.3 -999 308 -999
2010-05-20 06:42:09 51°13.661 2°55.959 125.4 -999 36 -999
2010-05-20 06:42:14 51°13.661 2°55.959 125.4 -999 3 -999
2010-05-20 06:42:19 51°13.661 2°55.958 125.4 -999 357 -999
2010-05-20 06:42:24 51°13.661 2°55.958 125.4 -999 320 -999
2010-05-20 06:42:29 51°13.661 2°55.958 125.4 -999 21 -999
2010-05-20 06:42:34 51°13.661 2°55.958 125.4 -999 313 -999
2010-05-20 06:42:39 51°13.662 2°55.958 125.4 -999 139 -999
2010-05-20 06:42:44 51°13.662 2°55.958 125.4 -999 352 -999
2010-05-20 06:42:49 51°13.662 2°55.958 125.4 -999 65 -999
2010-05-20 06:42:54 51°13.662 2°55.958 125.4 -999 296 -999
2010-05-20 06:42:59 51°13.662 2°55.958 125.4 -999 291 -999
2010-05-20 06:43:04 51°13.662 2°55.958 125.4 -999 225 -999
2010-05-20 06:43:09 51°13.662 2°55.958 125.4 -999 39 -999
2010-05-20 06:43:14 51°13.662 2°55.958 125.4 -999 355 -999
2010-05-20 06:43:19 51°13.662 2°55.958 125.4 -999 330 -999
2010-05-20 06:43:24 51°13.662 2°55.958 125.4 -999 235 -999
2010-05-20 06:43:28 51°13.662 2°55.958 125.4 -999 314 -999
2010-05-20 06:43:33 51°13.662 2°55.958 125.4 -999 264 -999
2010-05-20 06:43:38 51°13.662 2°55.958 125.4 -999 299 -999
2010-05-20 06:43:44 51°13.662 2°55.958 125.4 -999 230 -999
2010-05-20 06:43:49 51°13.662 2°55.958 125.4 -999 269 -999
2010-05-20 06:43:54 51°13.662 2°55.959 125.4 -999 186 -999
2010-05-20 06:43:58 51°13.662 2°55.959 125.4 -999 97 -999
2010-05-20 06:44:03 51°13.662 2°55.959 125.4 -999 22 -999
2010-05-20 06:44:09 51°13.662 2°55.959 125.4 -999 341 -999
2010-05-20 06:44:14 51°13.662 2°55.959 125.4 -999 60 -999
2010-05-20 06:44:18 51°13.662 2°55.959 125.4 -999 219 -999
2010-05-20 06:44:23 51°13.662 2°55.958 125.4 -999 135 -999
2010-05-20 06:44:29 51°13.662 2°55.958 125.4 -999 284 -999
2010-05-20 06:44:34 51°13.662 2°55.958 125.4 -999 345 -999
2010-05-20 06:44:39 51°13.662 2°55.958 125.4 -999 251 -999
2010-05-20 06:44:44 51°13.662 2°55.959 125.4 -999 63 -999
2010-05-20 06:44:49 51°13.662 2°55.959 125.4 -999 328 -999
2010-05-20 06:44:54 51°13.662 2°55.959 125.4 -999 338 -999
2010-05-20 06:44:59 51°13.662 2°55.959 125.4 -999 355 -999
2010-05-20 06:45:04 51°13.662 2°55.959 125.4 -999 201 -999
2010-05-20 06:45:09 51°13.662 2°55.959 125.4 -999 307 -999
2010-05-20 06:45:14 51°13.662 2°55.959 125.3 -999 30 -999
2010-05-20 06:45:19 51°13.662 2°55.959 125.3 -999 35 -999
2010-05-20 06:45:24 51°13.662 2°55.959 125.3 -999 28 -999
2010-05-20 06:45:29 51°13.662 2°55.959 125.3 -999 54 -999
2010-05-20 06:45:34 51°13.662 2°55.959 125.3 -999 349 -999
2010-05-20 06:45:39 51°13.662 2°55.959 125.3 -999 227 -999
2010-05-20 06:45:44 51°13.662 2°55.959 125.3 -999 53 -999
2010-05-20 06:45:49 51°13.662 2°55.959 125.4 -999 197 -999
2010-05-20 06:45:54 51°13.662 2°55.959 125.4 -999 343 -999
2010-05-20 06:45:59 51°13.662 2°55.959 125.4 -999 349 -999
2010-05-20 06:46:04 51°13.662 2°55.959 125.4 -999 321 -999
2010-05-20 06:46:09 51°13.662 2°55.959 125.3 -999 331 -999
2010-05-20 06:46:14 51°13.662 2°55.959 125.3 -999 20 -999
2010-05-20 06:46:19 51°13.662 2°55.959 125.3 -999 230 -999
2010-05-20 06:46:24 51°13.662 2°55.959 125.3 -999 310 -999
2010-05-20 06:46:29 51°13.662 2°55.959 125.3 -999 107 -999
2010-05-20 06:46:34 51°13.662 2°55.959 125.3 -999 341 -999
2010-05-20 06:46:39 51°13.662 2°55.959 125.3 -999 218 -999
2010-05-20 06:46:44 51°13.663 2°55.959 125.4 -999 119 -999
2010-05-20 06:46:49 51°13.663 2°55.959 125.4 -999 204 -999
2010-05-20 06:46:54 51°13.663 2°55.959 125.4 -999 266 -999
2010-05-20 06:46:59 51°13.663 2°55.959 125.4 -999 230 -999
2010-05-20 06:47:04 51°13.663 2°55.959 125.4 -999 239 -999
2010-05-20 06:47:09 51°13.663 2°55.959 125.4 -999 340 -999
2010-05-20 06:47:14 51°13.663 2°55.959 125.4 -999 305 -999
2010-05-20 06:47:19 51°13.663 2°55.959 125.4 -999 45 -999
2010-05-20 06:47:24 51°13.663 2°55.959 125.4 -999 134 -999
2010-05-20 06:47:29 51°13.663 2°55.959 125.4 -999 221 -999
2010-05-20 06:47:34 51°13.663 2°55.959 125.3 0.1 213 -999
2010-05-20 06:47:39 51°13.663 2°55.959 125.3 -999 319 -999
2010-05-20 06:47:44 51°13.663 2°55.959 125.3 -999 352 -999
2010-05-20 06:47:49 51°13.663 2°55.959 125.3 -999 224 -999
2010-05-20 06:47:54 51°13.663 2°55.959 125.3 -999 234 -999
2010-05-20 06:47:59 51°13.663 2°55.959 125.3 -999 232 -999
2010-05-20 06:48:04 51°13.663 2°55.959 125.2 -999 348 -999
2010-05-20 06:48:09 51°13.663 2°55.959 125.2 -999 37 -999
2010-05-20 06:48:14 51°13.663 2°55.959 125.2 -999 278 -999
2010-05-20 06:48:19 51°13.663 2°55.959 125.2 -999 341 -999
2010-05-20 06:48:24 51°13.663 2°55.959 125.2 -999 8 -999
2010-05-20 06:48:29 51°13.663 2°55.959 125.3 -999 248 -999
2010-05-20 06:48:34 51°13.663 2°55.959 125.3 -999 12 -999
2010-05-20 06:48:39 51°13.663 2°55.959 125.3 -999 349 -999
2010-05-20 06:48:44 51°13.663 2°55.959 125.3 -999 9 -999
2010-05-20 06:48:49 51°13.663 2°55.959 125.3 -999 345 -999
2010-05-20 06:48:54 51°13.663 2°55.959 125.3 -999 194 -999
2010-05-20 06:48:59 51°13.663 2°55.959 125.3 -999 287 -999
2010-05-20 06:49:04 51°13.663 2°55.959 125.3 -999 214 -999
2010-05-20 06:49:09 51°13.663 2°55.959 125.3 -999 -999 -999
2010-05-20 06:49:14 51°13.663 2°55.959 125.3 -999 259 -999
2010-05-20 06:49:19 51°13.663 2°55.959 125.3 -999 217 -999
2010-05-20 06:49:24 51°13.663 2°55.959 125.3 -999 52 -999
2010-05-20 06:49:29 51°13.663 2°55.959 125.3 -999 12 -999
2010-05-20 06:49:34 51°13.663 2°55.959 125.3 -999 357 -999
2010-05-20 06:49:39 51°13.663 2°55.959 125.3 -999 -999 -999
2010-05-20 06:49:44 51°13.663 2°55.959 125.3 -999 189 -999
2010-05-20 06:49:49 51°13.663 2°55.959 125.3 -999 199 -999
2010-05-20 06:49:54 51°13.663 2°55.959 125.3 -999 347 -999
2010-05-20 06:49:59 51°13.663 2°55.959 125.3 -999 301 -999
2010-05-20 06:50:04 51°13.663 2°55.959 125.3 -999 99 -999
2010-05-20 06:50:09 51°13.663 2°55.959 125.3 -999 352 -999
2010-05-20 06:50:14 51°13.663 2°55.959 125.3 -999 321 -999
2010-05-20 06:50:19 51°13.663 2°55.959 125.3 -999 317 -999
2010-05-20 06:50:24 51°13.663 2°55.959 125.3 -999 16 -999
2010-05-20 06:50:29 51°13.663 2°55.959 125.3 -999 280 -999
2010-05-20 06:50:34 51°13.663 2°55.959 125.3 -999 238 -999
2010-05-20 06:50:39 51°13.663 2°55.959 125.3 -999 203 -999
2010-05-20 06:50:44 51°13.663 2°55.959 125.3 -999 97 -999
2010-05-20 06:50:49 51°13.663 2°55.959 125.3 -999 258 -999
2010-05-20 06:50:54 51°13.663 2°55.959 125.3 -999 2 -999
2010-05-20 06:50:59 51°13.663 2°55.959 125.3 -999 249 -999
2010-05-20 06:51:04 51°13.663 2°55.959 125.3 -999 324 -999
2010-05-20 06:51:09 51°13.663 2°55.959 125.2 -999 2 -999
2010-05-20 06:51:14 51°13.663 2°55.959 125.2 -999 308 -999
2010-05-20 06:51:19 51°13.663 2°55.959 125.2 -999 237 -999
2010-05-20 06:51:24 51°13.663 2°55.959 125.2 -999 203 -999
2010-05-20 06:51:29 51°13.663 2°55.959 125.2 -999 161 -999
2010-05-20 06:51:34 51°13.663 2°55.959 125.2 -999 233 -999
2010-05-20 06:51:39 51°13.663 2°55.959 125.2 -999 30 -999
2010-05-20 06:51:44 51°13.663 2°55.959 125.2 -999 233 -999
2010-05-20 06:51:49 51°13.663 2°55.959 125.2 -999 180 -999
2010-05-20 06:51:54 51°13.663 2°55.959 125.2 -999 25 -999
2010-05-20 06:51:59 51°13.663 2°55.959 125.3 -999 9 -999
2010-05-20 06:52:04 51°13.663 2°55.959 125.3 -999 143 -999
2010-05-20 06:52:09 51°13.663 2°55.959 125.3 -999 320 -999
2010-05-20 06:52:14 51°13.663 2°55.959 125.3 -999 306 -999
2010-05-20 06:52:19 51°13.663 2°55.959 125.3 -999 207 -999
2010-05-20 06:52:24 51°13.663 2°55.96 125.3 -999 57 -999
2010-05-20 06:52:29 51°13.663 2°55.96 125.3 -999 274 -999
2010-05-20 06:52:34 51°13.663 2°55.96 125.3 -999 63 -999
2010-05-20 06:52:39 51°13.663 2°55.96 125.3 -999 35 -999
2010-05-20 06:52:44 51°13.663 2°55.96 125.3 -999 216 -999
2010-05-20 06:52:49 51°13.663 2°55.96 125.3 -999 359 -999
2010-05-20 06:52:54 51°13.663 2°55.96 125.3 -999 343 -999
2010-05-20 06:52:59 51°13.663 2°55.96 125.3 -999 6 -999
2010-05-20 06:53:04 51°13.663 2°55.96 125.3 -999 356 -999
2010-05-20 06:53:09 51°13.663 2°55.96 125.3 -999 199 -999
2010-05-20 06:53:14 51°13.663 2°55.96 125.3 -999 141 -999
2010-05-20 06:53:19 51°13.663 2°55.96 125.3 -999 320 -999
2010-05-20 06:53:24 51°13.663 2°55.96 125.3 -999 267 -999
2010-05-20 06:53:29 51°13.663 2°55.96 125.3 -999 324 -999
2010-05-20 06:53:34 51°13.663 2°55.96 125.3 -999 253 -999
2010-05-20 06:53:39 51°13.663 2°55.96 125.3 -999 346 -999
2010-05-20 06:53:44 51°13.663 2°55.96 125.3 -999 1 -999
2010-05-20 06:53:49 51°13.663 2°55.96 125.3 -999 206 -999
2010-05-20 06:53:54 51°13.663 2°55.96 125.3 -999 234 -999
2010-05-20 06:53:59 51°13.663 2°55.96 125.3 -999 286 -999
2010-05-20 06:54:04 51°13.663 2°55.96 125.4 -999 327 -999
2010-05-20 06:54:09 51°13.663 2°55.96 125.4 -999 14 -999
2010-05-20 06:54:14 51°13.663 2°55.96 125.4 -999 132 -999
2010-05-20 06:54:19 51°13.663 2°55.96 125.4 -999 292 -999
2010-05-20 06:54:24 51°13.663 2°55.96 125.4 -999 340 -999
2010-05-20 06:54:29 51°13.663 2°55.96 125.4 -999 344 -999
2010-05-20 06:54:34 51°13.663 2°55.96 125.4 -999 37 -999
2010-05-20 06:54:39 51°13.663 2°55.96 125.4 -999 352 -999
2010-05-20 06:54:44 51°13.663 2°55.96 125.4 -999 222 -999
2010-05-20 06:54:49 51°13.663 2°55.96 125.4 -999 339 -999
2010-05-20 06:54:54 51°13.663 2°55.96 125.4 -999 248 -999
2010-05-20 06:54:59 51°13.663 2°55.96 125.4 -999 22 -999
2010-05-20 06:55:04 51°13.663 2°55.96 125.4 -999 18 -999
2010-05-20 06:55:09 51°13.663 2°55.96 125.4 -999 281 -999
2010-05-20 06:55:14 51°13.663 2°55.96 125.4 -999 45 -999
2010-05-20 06:55:19 51°13.663 2°55.96 125.4 -999 136 -999
2010-05-20 06:55:24 51°13.663 2°55.96 125.4 -999 341 -999
2010-05-20 06:55:29 51°13.663 2°55.96 125.4 -999 282 -999
2010-05-20 06:55:34 51°13.663 2°55.959 125.4 -999 158 -999
2010-05-20 06:55:39 51°13.663 2°55.959 125.4 -999 65 -999
2010-05-20 06:55:44 51°13.663 2°55.959 125.4 -999 262 -999
2010-05-20 06:55:49 51°13.663 2°55.959 125.4 -999 294 -999
2010-05-20 06:55:54 51°13.663 2°55.959 125.4 -999 231 -999
2010-05-20 06:55:59 51°13.663 2°55.959 125.4 -999 196 -999
2010-05-20 06:56:04 51°13.663 2°55.959 125.4 -999 225 -999
2010-05-20 06:56:09 51°13.664 2°55.959 125.5 -999 298 -999
2010-05-20 06:56:14 51°13.664 2°55.959 125.5 -999 316 -999
2010-05-20 06:56:19 51°13.664 2°55.959 125.5 -999 98 -999
2010-05-20 06:56:24 51°13.664 2°55.959 125.5 -999 305 -999
2010-05-20 06:56:29 51°13.664 2°55.959 125.5 -999 64 -999
2010-05-20 06:56:34 51°13.664 2°55.959 125.5 -999 190 -999
2010-05-20 06:56:39 51°13.664 2°55.959 125.5 -999 -999 -999
2010-05-20 06:56:44 51°13.664 2°55.959 125.5 -999 20 -999
2010-05-20 06:56:49 51°13.664 2°55.959 125.5 -999 18 -999
2010-05-20 06:56:54 51°13.664 2°55.959 125.5 -999 327 -999
2010-05-20 06:56:59 51°13.664 2°55.959 125.5 -999 5 -999
2010-05-20 06:57:04 51°13.664 2°55.959 125.5 -999 256 -999
2010-05-20 06:57:09 51°13.664 2°55.959 125.5 -999 201 -999
2010-05-20 06:57:14 51°13.664 2°55.959 125.5 -999 131 -999
2010-05-20 06:57:19 51°13.664 2°55.959 125.5 -999 17 -999
2010-05-20 06:57:24 51°13.664 2°55.959 125.5 -999 142 -999
2010-05-20 06:57:29 51°13.664 2°55.959 125.5 -999 203 -999
2010-05-20 06:57:34 51°13.664 2°55.959 125.5 -999 296 -999
2010-05-20 06:57:39 51°13.664 2°55.959 125.5 -999 34 -999
2010-05-20 06:57:44 51°13.664 2°55.959 125.5 -999 282 -999
2010-05-20 06:57:49 51°13.664 2°55.959 125.5 -999 232 -999
2010-05-20 06:57:54 51°13.664 2°55.959 125.5 -999 225 -999
2010-05-20 06:57:59 51°13.665 2°55.959 125.5 -999 211 -999
2010-05-20 06:58:04 51°13.665 2°55.959 125.5 -999 202 -999
2010-05-20 06:58:09 51°13.665 2°55.959 125.5 -999 217 -999
2010-05-20 06:58:14 51°13.665 2°55.959 125.5 -999 149 -999
2010-05-20 06:58:19 51°13.665 2°55.959 125.5 -999 34 -999
2010-05-20 06:58:24 51°13.665 2°55.959 125.5 -999 184 -999
2010-05-20 06:58:29 51°13.665 2°55.959 125.5 -999 116 -999
2010-05-20 06:58:34 51°13.665 2°55.959 125.5 -999 260 -999
2010-05-20 06:58:39 51°13.665 2°55.959 125.5 -999 307 -999
2010-05-20 06:58:44 51°13.665 2°55.959 125.5 -999 16 -999
2010-05-20 06:58:49 51°13.665 2°55.959 125.5 -999 17 -999
2010-05-20 06:58:54 51°13.665 2°55.959 125.5 -999 253 -999
2010-05-20 06:58:59 51°13.665 2°55.959 125.5 -999 216 -999
2010-05-20 06:59:04 51°13.665 2°55.959 125.5 -999 234 -999
2010-05-20 06:59:09 51°13.665 2°55.959 125.5 -999 341 -999
2010-05-20 06:59:14 51°13.665 2°55.959 125.5 -999 332 -999
2010-05-20 06:59:19 51°13.665 2°55.959 125.5 -999 352 -999
2010-05-20 06:59:24 51°13.665 2°55.959 125.5 -999 20 -999
2010-05-20 06:59:29 51°13.665 2°55.959 125.5 -999 54 -999
2010-05-20 06:59:34 51°13.665 2°55.959 125.5 -999 36 -999
2010-05-20 06:59:39 51°13.665 2°55.959 125.5 -999 53 -999
2010-05-20 06:59:44 51°13.665 2°55.959 125.5 -999 333 -999
2010-05-20 06:59:49 51°13.665 2°55.959 125.5 -999 199 -999
2010-05-20 06:59:54 51°13.665 2°55.959 125.5 -999 259 -999
2010-05-20 06:59:59 51°13.665 2°55.959 125.5 -999 353 -999
2010-05-20 07:00:04 51°13.665 2°55.959 125.5 -999 197 -999
2010-05-20 07:00:09 51°13.665 2°55.959 125.5 -999 276 -999
2010-05-20 07:00:14 51°13.665 2°55.959 125.5 -999 350 -999
2010-05-20 07:00:19 51°13.665 2°55.959 125.5 -999 7 -999
2010-05-20 07:00:24 51°13.665 2°55.959 125.5 -999 14 -999
2010-05-20 07:00:29 51°13.665 2°55.959 125.5 -999 18 -999
2010-05-20 07:00:34 51°13.665 2°55.959 125.5 -999 224 -999
2010-05-20 07:00:39 51°13.665 2°55.959 125.5 -999 16 -999
2010-05-20 07:00:44 51°13.665 2°55.96 125.5 -999 241 -999
2010-05-20 07:00:49 51°13.665 2°55.96 125.5 -999 203 -999
2010-05-20 07:00:54 51°13.665 2°55.96 125.5 -999 281 -999
2010-05-20 07:00:59 51°13.665 2°55.96 125.5 -999 183 -999
2010-05-20 07:01:04 51°13.665 2°55.96 125.5 -999 192 -999
2010-05-20 07:01:09 51°13.665 2°55.96 125.5 -999 205 -999
2010-05-20 07:01:14 51°13.665 2°55.96 125.5 -999 189 -999
2010-05-20 07:01:19 51°13.665 2°55.96 125.5 -999 26 -999
2010-05-20 07:01:24 51°13.665 2°55.96 125.5 -999 357 -999
2010-05-20 07:01:29 51°13.665 2°55.96 125.5 -999 204 -999
2010-05-20 07:01:34 51°13.665 2°55.96 125.5 -999 224 -999
2010-05-20 07:01:39 51°13.665 2°55.96 125.5 -999 2 -999
2010-05-20 07:01:44 51°13.665 2°55.96 125.5 -999 289 -999
2010-05-20 07:01:49 51°13.665 2°55.96 125.5 -999 319 -999
2010-05-20 07:01:54 51°13.665 2°55.96 125.5 -999 341 -999
2010-05-20 07:01:59 51°13.665 2°55.96 125.5 -999 184 -999
2010-05-20 07:02:04 51°13.665 2°55.96 125.5 -999 214 -999
2010-05-20 07:02:09 51°13.665 2°55.96 125.5 -999 311 -999
2010-05-20 07:02:14 51°13.665 2°55.96 125.5 -999 24 -999
2010-05-20 07:02:19 51°13.665 2°55.959 125.5 -999 313 -999
2010-05-20 07:02:24 51°13.665 2°55.959 125.6 -999 279 -999
2010-05-20 07:02:29 51°13.665 2°55.959 125.6 -999 285 -999
2010-05-20 07:02:34 51°13.665 2°55.959 125.6 -999 34 -999
2010-05-20 07:02:39 51°13.665 2°55.959 125.6 -999 204 -999
2010-05-20 07:02:44 51°13.665 2°55.959 125.6 -999 63 -999
2010-05-20 07:02:49 51°13.665 2°55.959 125.6 -999 345 -999
2010-05-20 07:02:54 51°13.665 2°55.959 125.6 -999 250 -999
2010-05-20 07:02:59 51°13.665 2°55.959 125.6 -999 178 -999
2010-05-20 07:03:04 51°13.665 2°55.959 125.6 -999 223 -999
2010-05-20 07:03:09 51°13.665 2°55.959 125.6 -999 340 -999
2010-05-20 07:03:14 51°13.665 2°55.959 125.6 -999 359 -999
2010-05-20 07:03:19 51°13.665 2°55.959 125.6 -999 264 -999
2010-05-20 07:03:24 51°13.665 2°55.959 125.6 -999 280 -999
2010-05-20 07:03:29 51°13.665 2°55.959 125.6 -999 8 -999
2010-05-20 07:03:34 51°13.665 2°55.959 125.6 -999 136 -999
2010-05-20 07:03:39 51°13.665 2°55.959 125.6 -999 270 -999
2010-05-20 07:03:44 51°13.665 2°55.959 125.6 -999 245 -999
2010-05-20 07:03:49 51°13.665 2°55.959 125.6 -999 273 -999
2010-05-20 07:03:54 51°13.665 2°55.959 125.6 -999 348 -999
2010-05-20 07:03:59 51°13.665 2°55.959 125.6 -999 215 -999
2010-05-20 07:04:04 51°13.665 2°55.959 125.6 -999 224 -999
2010-05-20 07:04:09 51°13.665 2°55.96 125.6 -999 85 -999
2010-05-20 07:04:14 51°13.665 2°55.96 125.6 -999 4 -999
2010-05-20 07:04:19 51°13.664 2°55.96 125.6 -999 262 -999
2010-05-20 07:04:24 51°13.664 2°55.96 125.6 -999 13 -999
2010-05-20 07:04:29 51°13.664 2°55.96 125.6 -999 306 -999
2010-05-20 07:04:34 51°13.664 2°55.96 125.6 -999 89 -999
2010-05-20 07:04:39 51°13.664 2°55.96 125.6 -999 200 -999
2010-05-20 07:04:44 51°13.664 2°55.96 125.6 -999 341 -999
2010-05-20 07:04:49 51°13.664 2°55.96 125.6 -999 17 -999
2010-05-20 07:04:54 51°13.664 2°55.96 125.6 -999 317 -999
2010-05-20 07:04:59 51°13.664 2°55.96 125.6 -999 36 -999
2010-05-20 07:05:04 51°13.664 2°55.961 125.7 -999 2 -999
2010-05-20 07:05:09 51°13.663 2°55.961 125.7 -999 335 -999
2010-05-20 07:05:14 51°13.663 2°55.961 125.7 -999 27 -999
2010-05-20 07:05:19 51°13.663 2°55.961 125.7 -999 302 -999
2010-05-20 07:05:24 51°13.663 2°55.961 125.7 -999 41 -999
2010-05-20 07:05:29 51°13.663 2°55.961 125.7 -999 336 -999
2010-05-20 07:05:34 51°13.663 2°55.961 125.7 -999 318 -999
2010-05-20 07:05:39 51°13.663 2°55.961 125.7 -999 50 -999
2010-05-20 07:05:44 51°13.663 2°55.961 125.7 -999 236 -999
2010-05-20 07:05:49 51°13.663 2°55.961 125.7 -999 320 -999
2010-05-20 07:05:54 51°13.663 2°55.961 125.7 -999 9 -999
2010-05-20 07:05:59 51°13.663 2°55.961 125.8 -999 206 -999
2010-05-20 07:06:04 51°13.662 2°55.961 125.8 -999 199 -999
2010-05-20 07:06:09 51°13.662 2°55.961 125.8 -999 90 -999
2010-05-20 07:06:14 51°13.662 2°55.961 125.8 -999 143 -999
2010-05-20 07:06:19 51°13.662 2°55.961 125.8 -999 4 -999
2010-05-20 07:06:24 51°13.662 2°55.961 125.8 -999 348 -999
2010-05-20 07:06:29 51°13.662 2°55.961 125.8 -999 300 -999
2010-05-20 07:06:34 51°13.662 2°55.961 125.8 -999 35 -999
2010-05-20 07:06:39 51°13.662 2°55.961 125.8 -999 13 -999
2010-05-20 07:06:44 51°13.662 2°55.961 125.8 -999 252 -999
2010-05-20 07:06:49 51°13.662 2°55.961 125.8 -999 107 -999
2010-05-20 07:06:54 51°13.662 2°55.961 125.8 -999 51 -999
2010-05-20 07:06:59 51°13.662 2°55.961 125.8 -999 223 -999
2010-05-20 07:07:04 51°13.662 2°55.961 125.8 -999 359 -999
2010-05-20 07:07:09 51°13.662 2°55.961 125.8 -999 51 -999
2010-05-20 07:07:14 51°13.662 2°55.961 125.8 -999 65 -999
2010-05-20 07:07:19 51°13.662 2°55.961 125.8 -999 222 -999
2010-05-20 07:07:24 51°13.662 2°55.96 125.9 -999 170 -999
2010-05-20 07:07:29 51°13.662 2°55.96 125.9 -999 226 -999
2010-05-20 07:07:34 51°13.662 2°55.96 126 -999 191 -999
2010-05-20 07:07:39 51°13.662 2°55.96 126 -999 268 -999
2010-05-20 07:07:44 51°13.662 2°55.96 126 -999 338 -999
2010-05-20 07:07:49 51°13.662 2°55.96 126 -999 244 -999
2010-05-20 07:07:54 51°13.662 2°55.96 126 -999 214 -999
2010-05-20 07:07:59 51°13.663 2°55.96 126 -999 358 -999
2010-05-20 07:08:04 51°13.663 2°55.96 126 -999 348 -999
2010-05-20 07:08:09 51°13.663 2°55.96 126 -999 357 -999
2010-05-20 07:08:14 51°13.662 2°55.96 126 -999 206 -999
2010-05-20 07:08:19 51°13.662 2°55.96 126 -999 23 -999
2010-05-20 07:08:24 51°13.662 2°55.96 126 -999 199 -999
2010-05-20 07:08:29 51°13.663 2°55.96 126 -999 11 -999
2010-05-20 07:08:34 51°13.662 2°55.96 126 -999 39 -999
2010-05-20 07:08:39 51°13.663 2°55.96 126 -999 352 -999
2010-05-20 07:08:44 51°13.663 2°55.96 126.1 -999 228 -999
2010-05-20 07:08:49 51°13.663 2°55.96 126.2 -999 273 -999
2010-05-20 07:08:54 51°13.663 2°55.96 126.2 -999 168 -999
2010-05-20 07:08:59 51°13.663 2°55.96 126.2 -999 188 -999
2010-05-20 07:09:04 51°13.663 2°55.96 126.2 -999 336 -999
2010-05-20 07:09:09 51°13.663 2°55.96 126.2 -999 37 -999
2010-05-20 07:09:14 51°13.663 2°55.96 126.2 -999 277 -999
2010-05-20 07:09:19 51°13.663 2°55.96 126.2 -999 254 -999
2010-05-20 07:09:24 51°13.663 2°55.96 126.2 -999 3 -999
2010-05-20 07:09:29 51°13.663 2°55.96 126.2 -999 30 -999
2010-05-20 07:09:34 51°13.663 2°55.96 126.3 -999 266 -999
2010-05-20 07:09:39 51°13.663 2°55.96 126.3 -999 110 -999
2010-05-20 07:09:44 51°13.663 2°55.96 126.3 -999 281 -999
2010-05-20 07:09:49 51°13.663 2°55.96 126.3 -999 24 -999
2010-05-20 07:09:54 51°13.663 2°55.96 126.3 -999 12 -999
2010-05-20 07:09:59 51°13.663 2°55.96 126.3 -999 326 -999
2010-05-20 07:10:04 51°13.663 2°55.96 126.3 -999 345 -999
2010-05-20 07:10:09 51°13.663 2°55.96 126.3 -999 314 -999
2010-05-20 07:10:14 51°13.663 2°55.96 126.3 -999 38 -999
2010-05-20 07:10:19 51°13.663 2°55.96 126.3 -999 49 -999
2010-05-20 07:10:24 51°13.663 2°55.96 126.3 -999 327 -999
2010-05-20 07:10:29 51°13.663 2°55.96 126.3 -999 344 -999
2010-05-20 07:10:34 51°13.663 2°55.96 126.3 -999 335 -999
2010-05-20 07:10:39 51°13.663 2°55.96 126.3 -999 106 -999
2010-05-20 07:10:44 51°13.663 2°55.96 126.3 -999 282 -999
2010-05-20 07:10:49 51°13.663 2°55.96 126.3 -999 191 -999
2010-05-20 07:10:54 51°13.663 2°55.96 126.3 -999 169 -999
2010-05-20 07:10:59 51°13.663 2°55.96 126.3 -999 289 -999
2010-05-20 07:11:04 51°13.663 2°55.96 126.3 -999 326 -999
2010-05-20 07:11:09 51°13.663 2°55.96 126.4 -999 11 -999
2010-05-20 07:11:14 51°13.663 2°55.96 126.4 -999 356 -999
2010-05-20 07:11:19 51°13.663 2°55.96 126.4 -999 204 -999
2010-05-20 07:11:24 51°13.663 2°55.96 126.4 -999 23 -999
2010-05-20 07:11:29 51°13.663 2°55.96 126.4 -999 18 -999
2010-05-20 07:11:34 51°13.663 2°55.96 126.4 -999 348 -999
2010-05-20 07:11:39 51°13.663 2°55.96 126.4 -999 40 -999
2010-05-20 07:11:44 51°13.663 2°55.96 126.4 -999 48 -999
2010-05-20 07:11:49 51°13.663 2°55.96 126.4 -999 10 -999
2010-05-20 07:11:54 51°13.663 2°55.96 126.4 -999 291 -999
2010-05-20 07:11:59 51°13.663 2°55.96 126.5 -999 36 -999
2010-05-20 07:12:04 51°13.663 2°55.96 126.5 -999 203 -999
2010-05-20 07:12:09 51°13.663 2°55.961 126.5 -999 45 -999
2010-05-20 07:12:14 51°13.663 2°55.961 126.5 -999 328 -999
2010-05-20 07:12:19 51°13.663 2°55.961 126.5 -999 101 -999
2010-05-20 07:12:24 51°13.663 2°55.961 126.5 -999 149 -999
2010-05-20 07:12:29 51°13.663 2°55.961 126.5 -999 35 -999
2010-05-20 07:12:34 51°13.663 2°55.961 126.5 -999 202 -999
2010-05-20 07:12:39 51°13.663 2°55.961 126.5 -999 200 -999
2010-05-20 07:12:44 51°13.663 2°55.961 126.5 -999 20 -999
2010-05-20 07:12:49 51°13.663 2°55.961 126.5 -999 322 -999
2010-05-20 07:12:54 51°13.662 2°55.961 126.5 -999 234 -999
2010-05-20 07:12:59 51°13.662 2°55.961 126.5 -999 358 -999
2010-05-20 07:13:04 51°13.662 2°55.961 126.5 -999 355 -999
2010-05-20 07:13:09 51°13.662 2°55.961 126.5 -999 2 -999
2010-05-20 07:13:14 51°13.662 2°55.961 126.6 -999 -999 -999
2010-05-20 07:13:19 51°13.662 2°55.961 126.6 -999 325 -999
2010-05-20 07:13:24 51°13.662 2°55.961 126.6 -999 353 -999
2010-05-20 07:13:29 51°13.662 2°55.961 126.6 -999 9 -999
2010-05-20 07:13:34 51°13.662 2°55.961 126.6 -999 233 -999
2010-05-20 07:13:39 51°13.662 2°55.961 126.6 -999 196 -999
2010-05-20 07:13:44 51°13.662 2°55.961 126.6 -999 308 -999
2010-05-20 07:13:49 51°13.662 2°55.962 126.5 -999 312 -999
2010-05-20 07:13:54 51°13.662 2°55.962 126.5 -999 255 -999
2010-05-20 07:13:59 51°13.662 2°55.962 126.5 -999 172 -999
2010-05-20 07:14:04 51°13.662 2°55.962 126.5 -999 13 -999
2010-05-20 07:14:09 51°13.662 2°55.962 126.5 -999 216 -999
2010-05-20 07:14:14 51°13.662 2°55.962 126.5 -999 291 -999
2010-05-20 07:14:19 51°13.662 2°55.962 126.5 -999 104 -999
2010-05-20 07:14:24 51°13.661 2°55.962 126.5 -999 206 -999
2010-05-20 07:14:29 51°13.662 2°55.962 126.6 -999 151 -999
2010-05-20 07:14:34 51°13.662 2°55.962 126.6 -999 197 7.2
2010-05-20 07:14:38 51°13.662 2°55.962 126.7 -999 353 7.2
2010-05-20 07:14:43 51°13.662 2°55.962 126.7 -999 191 5.4
2010-05-20 07:14:48 51°13.662 2°55.962 126.7 -999 185 -999
2010-05-20 07:14:53 51°13.662 2°55.962 126.7 -999 249 7.2
2010-05-20 07:14:58 51°13.662 2°55.962 126.7 -999 229 7.2
2010-05-20 07:15:02 51°13.661 2°55.962 126.7 -999 277 7.2
2010-05-20 07:15:07 51°13.661 2°55.962 126.7 -999 7 7.2
2010-05-20 07:15:12 51°13.661 2°55.962 126.7 -999 313 7.2
2010-05-20 07:15:18 51°13.661 2°55.962 126.7 -999 281 7.2
2010-05-20 07:15:22 51°13.662 2°55.962 126.7 -999 352 7.2
2010-05-20 07:15:27 51°13.662 2°55.962 126.7 -999 310 7.2
2010-05-20 07:15:32 51°13.662 2°55.962 126.7 -999 223 7.2
2010-05-20 07:15:37 51°13.662 2°55.962 126.7 -999 138 5.4
2010-05-20 07:15:42 51°13.662 2°55.962 126.7 -999 185 7.2
2010-05-20 07:15:46 51°13.662 2°55.962 126.8 -999 236 7.1
2010-05-20 07:15:51 51°13.662 2°55.962 126.8 -999 319 7.2
2010-05-20 07:15:56 51°13.662 2°55.962 126.8 -999 294 7.2
2010-05-20 07:16:01 51°13.661 2°55.962 126.8 -999 112 7.2
2010-05-20 07:16:06 51°13.661 2°55.962 126.8 -999 21 7.2
2010-05-20 07:16:10 51°13.661 2°55.962 126.9 -999 235 7.2
2010-05-20 07:16:15 51°13.661 2°55.962 126.9 -999 249 7.2
2010-05-20 07:16:20 51°13.661 2°55.962 126.9 -999 223 7.2
2010-05-20 07:16:26 51°13.662 2°55.962 126.9 -999 251 7.2
2010-05-20 07:16:30 51°13.662 2°55.962 126.9 -999 313 7.2
2010-05-20 07:16:34 51°13.662 2°55.962 126.9 -999 308 7.2
2010-05-20 07:16:40 51°13.662 2°55.962 126.9 -999 258 7.2
2010-05-20 07:16:45 51°13.662 2°55.962 126.9 -999 28 7.2
2010-05-20 07:16:50 51°13.662 2°55.962 126.9 -999 20 5.4
2010-05-20 07:16:54 51°13.662 2°55.962 126.9 -999 37 7.2
2010-05-20 07:17:00 51°13.662 2°55.962 126.9 -999 286 7.2
2010-05-20 07:17:05 51°13.662 2°55.962 127 -999 197 7.2
2010-05-20 07:17:10 51°13.662 2°55.962 127 0.1 189 7.2
2010-05-20 07:17:14 51°13.662 2°55.962 127 -999 319 7.2
2010-05-20 07:17:20 51°13.662 2°55.962 127 -999 16 7.2
2010-05-20 07:17:25 51°13.662 2°55.962 127 0.1 224 7.2
2010-05-20 07:17:30 51°13.662 2°55.962 127 -999 158 5.4
2010-05-20 07:17:35 51°13.662 2°55.961 127 -999 342 7.2
2010-05-20 07:17:40 51°13.662 2°55.961 127 -999 335 7.2
2010-05-20 07:17:45 51°13.662 2°55.961 127 -999 184 7.2
2010-05-20 07:17:50 51°13.662 2°55.961 127 -999 184 7.1
2010-05-20 07:17:55 51°13.662 2°55.961 127 -999 146 7.1
2010-05-20 07:18:00 51°13.662 2°55.961 127 -999 314 7.2
2010-05-20 07:18:05 51°13.662 2°55.961 127 -999 25 7.2
2010-05-20 07:18:10 51°13.662 2°55.961 127 -999 343 7.2
2010-05-20 07:18:14 51°13.662 2°55.961 127 -999 219 7.2
2010-05-20 07:18:20 51°13.662 2°55.961 127 -999 240 7.2
2010-05-20 07:18:25 51°13.662 2°55.961 127 -999 218 7.2
2010-05-20 07:18:30 51°13.662 2°55.961 127 -999 99 5.4
2010-05-20 07:18:34 51°13.662 2°55.961 127 -999 55 5.4
2010-05-20 07:18:40 51°13.662 2°55.961 127 -999 250 7.1
2010-05-20 07:18:45 51°13.662 2°55.961 127 -999 232 7.1
2010-05-20 07:18:50 51°13.662 2°55.961 127 -999 128 7.1
2010-05-20 07:18:54 51°13.663 2°55.961 127 -999 341 7.1
2010-05-20 07:19:00 51°13.663 2°55.961 126.9 -999 342 7.1
2010-05-20 07:19:05 51°13.663 2°55.961 126.9 -999 228 7.1
2010-05-20 07:19:10 51°13.663 2°55.961 126.9 -999 40 7.1
2010-05-20 07:19:14 51°13.663 2°55.961 126.9 -999 359 5.4
2010-05-20 07:19:20 51°13.663 2°55.961 126.9 -999 12 5.4
2010-05-20 07:19:25 51°13.663 2°55.961 126.9 -999 16 5.4
2010-05-20 07:19:30 51°13.663 2°55.961 126.9 -999 75 7.1
2010-05-20 07:19:34 51°13.663 2°55.961 126.9 -999 124 7.1
2010-05-20 07:19:40 51°13.663 2°55.961 126.9 -999 88 7.2
2010-05-20 07:19:45 51°13.663 2°55.961 126.9 -999 239 7.2
2010-05-20 07:19:50 51°13.663 2°55.961 127.1 -999 206 7.2
2010-05-20 07:19:54 51°13.663 2°55.961 127.5 -999 26 7.2
2010-05-20 07:20:00 51°13.662 2°55.962 127.8 -999 281 7.2
2010-05-20 07:20:05 51°13.662 2°55.962 127.9 -999 319 7.1
2010-05-20 07:20:10 51°13.662 2°55.962 128 -999 42 7.2
2010-05-20 07:20:14 51°13.662 2°55.962 128 -999 324 7.2
2010-05-20 07:20:20 51°13.662 2°55.962 127.9 -999 233 7.1
2010-05-20 07:20:25 51°13.662 2°55.962 127.8 -999 270 7.1
2010-05-20 07:20:30 51°13.662 2°55.962 127.8 -999 19 -999
2010-05-20 07:20:34 51°13.662 2°55.962 127.9 -999 207 7.1
2010-05-20 07:20:40 51°13.662 2°55.962 127.9 -999 333 7.1
2010-05-20 07:20:45 51°13.662 2°55.962 127.9 -999 348 7.1
2010-05-20 07:20:50 51°13.662 2°55.962 127.9 -999 300 7.1
2010-05-20 07:20:55 51°13.662 2°55.963 127.9 -999 183 7.1
2010-05-20 07:21:00 51°13.662 2°55.963 127.9 -999 334 7.1
2010-05-20 07:21:05 51°13.662 2°55.963 127.9 -999 345 7.1
2010-05-20 07:21:10 51°13.662 2°55.963 127.9 -999 344 7.1
2010-05-20 07:21:15 51°13.662 2°55.962 127.9 -999 179 5.4
2010-05-20 07:21:20 51°13.662 2°55.962 127.9 -999 303 5.4
2010-05-20 07:21:25 51°13.662 2°55.962 127.9 -999 9 5.4
2010-05-20 07:21:30 51°13.662 2°55.962 127.9 -999 107 7.1
2010-05-20 07:21:35 51°13.662 2°55.962 127.9 -999 189 7.1
2010-05-20 07:21:40 51°13.662 2°55.962 127.9 -999 69 7.1
2010-05-20 07:21:45 51°13.662 2°55.962 127.9 -999 357 7.1
2010-05-20 07:21:50 51°13.662 2°55.962 127.9 -999 227 7.1
2010-05-20 07:21:54 51°13.662 2°55.962 127.9 -999 47 7.1
2010-05-20 07:22:00 51°13.662 2°55.962 127.9 -999 243 7.1
2010-05-20 07:22:05 51°13.662 2°55.962 127.9 -999 233 7.1
2010-05-20 07:22:10 51°13.662 2°55.962 127.9 -999 299 7.1
2010-05-20 07:22:14 51°13.662 2°55.962 127.9 -999 221 -999
2010-05-20 07:22:20 51°13.663 2°55.962 127.9 -999 341 7.1
2010-05-20 07:22:25 51°13.663 2°55.962 127.9 -999 170 7.1
2010-05-20 07:22:30 51°13.663 2°55.962 127.9 -999 141 7.1
2010-05-20 07:22:34 51°13.663 2°55.962 127.9 -999 116 7.1
2010-05-20 07:22:40 51°13.663 2°55.962 127.9 -999 67 7.1
2010-05-20 07:22:45 51°13.663 2°55.962 127.9 -999 315 7.1
2010-05-20 07:22:50 51°13.663 2°55.962 127.9 -999 299 7.1
2010-05-20 07:22:54 51°13.663 2°55.962 128 -999 2 7.1
2010-05-20 07:23:00 51°13.663 2°55.962 128 -999 135 5.4
2010-05-20 07:23:05 51°13.663 2°55.962 128 -999 201 7.1
2010-05-20 07:23:10 51°13.663 2°55.962 127.9 -999 76 5.4
2010-05-20 07:23:14 51°13.663 2°55.962 127.8 -999 69 7.1
2010-05-20 07:23:20 51°13.663 2°55.961 127.4 -999 41 7.1
2010-05-20 07:23:25 51°13.663 2°55.96 127.1 -999 335 7.1
2010-05-20 07:23:30 51°13.663 2°55.96 127 -999 6 7.1
2010-05-20 07:23:34 51°13.663 2°55.96 127 -999 235 7.1
2010-05-20 07:23:40 51°13.663 2°55.959 127.1 -999 292 7.1
2010-05-20 07:23:45 51°13.663 2°55.959 127.4 -999 274 7.1
2010-05-20 07:23:50 51°13.663 2°55.959 127.8 -999 259 7.1
2010-05-20 07:23:54 51°13.663 2°55.96 128.1 -999 270 7.1
2010-05-20 07:24:00 51°13.663 2°55.96 128.6 -999 298 7.1
2010-05-20 07:24:05 51°13.663 2°55.96 129.1 0.1 275 7.1
2010-05-20 07:24:10 51°13.663 2°55.96 129.5 0.1 275 7.1
2010-05-20 07:24:14 51°13.663 2°55.96 130 -999 301 7.2
2010-05-20 07:24:20 51°13.663 2°55.96 130.2 0.1 38 7.1
2010-05-20 07:24:25 51°13.662 2°55.961 130.3 -999 55 7.1
2010-05-20 07:24:30 51°13.662 2°55.961 130.4 0.1 75 7.1
2010-05-20 07:24:34 51°13.662 2°55.961 130 0.1 85 7.1
2010-05-20 07:24:40 51°13.662 2°55.962 129.1 0.1 78 7.2
2010-05-20 07:24:45 51°13.662 2°55.962 127.8 -999 57 7.1
2010-05-20 07:24:50 51°13.662 2°55.962 126.5 -999 192 7
2010-05-20 07:24:54 51°13.662 2°55.962 125.6 0.1 191 7.1
2010-05-20 07:25:00 51°13.662 2°55.962 124.8 -999 192 7.1
2010-05-20 07:25:05 51°13.662 2°55.962 124 0.1 191 7.1
2010-05-20 07:25:10 51°13.662 2°55.962 123.3 0.1 187 7.1
2010-05-20 07:25:14 51°13.662 2°55.962 122.5 -999 186 7.1
2010-05-20 07:25:20 51°13.662 2°55.962 121.7 0.1 206 7.1
2010-05-20 07:25:25 51°13.662 2°55.962 121.1 -999 185 7.1
2010-05-20 07:25:31 51°13.662 2°55.962 120.3 0.1 186 5.4
2010-05-20 07:25:34 51°13.662 2°55.962 119.6 0.1 200 5.4
2010-05-20 07:25:39 51°13.662 2°55.962 118.9 0.1 211 7.1
2010-05-20 07:25:45 51°13.662 2°55.962 118.3 -999 223 7.2
2010-05-20 07:25:50 51°13.662 2°55.962 117.5 0.1 193 7.2
2010-05-20 07:25:55 51°13.662 2°55.962 116.8 0.1 204 7.2
2010-05-20 07:26:00 51°13.661 2°55.962 116.1 0.1 193 7.2
2010-05-20 07:26:05 51°13.661 2°55.962 115.4 -999 204 7.2
2010-05-20 07:26:10 51°13.661 2°55.961 114.6 0.1 195 7.2
2010-05-20 07:26:15 51°13.661 2°55.961 113.8 0.1 196 7.2
2010-05-20 07:26:20 51°13.661 2°55.961 113.1 0.1 211 7.2
2010-05-20 07:26:25 51°13.661 2°55.961 112.4 0.1 253 7.2
2010-05-20 07:26:30 51°13.661 2°55.96 111.9 0.3 287 7.2
2010-05-20 07:26:35 51°13.661 2°55.959 111.4 0.4 290 7.2
2010-05-20 07:26:40 51°13.662 2°55.958 111.2 0.7 285 7.2
2010-05-20 07:26:45 51°13.662 2°55.956 111.1 0.9 288 7.2
2010-05-20 07:26:50 51°13.663 2°55.953 110.9 1.2 288 7.3
2010-05-20 07:26:55 51°13.663 2°55.95 110.8 1.5 290 7.3
2010-05-20 07:26:59 51°13.664 2°55.947 110.9 1.8 289 5.5
2010-05-20 07:27:05 51°13.665 2°55.941 111.2 2.2 291 -999
2010-05-20 07:27:11 51°13.667 2°55.935 111.8 2.6 292 -999
2010-05-20 07:27:16 51°13.668 2°55.929 112.2 2.9 292 -999
2010-05-20 07:27:23 51°13.671 2°55.92 112.6 3.2 293 -999
2010-05-20 07:27:28 51°13.672 2°55.913 112.6 3.3 292 -999
2010-05-20 07:27:34 51°13.675 2°55.905 112.3 3.4 292 -999
2010-05-20 07:27:39 51°13.676 2°55.898 111.5 3.5 292 -999
2010-05-20 07:27:43 51°13.678 2°55.892 110.7 3.5 291 -999
2010-05-20 07:27:49 51°13.68 2°55.883 109.8 3.6 290 -999
2010-05-20 07:27:54 51°13.681 2°55.875 109 3.6 289 -999
2010-05-20 07:27:59 51°13.683 2°55.868 108.2 3.6 289 -999
2010-05-20 07:28:03 51°13.684 2°55.862 107.5 3.6 288 -999
2010-05-20 07:28:09 51°13.686 2°55.852 106.8 3.6 287 -999
2010-05-20 07:28:14 51°13.687 2°55.845 105.6 3.5 286 -999
2010-05-20 07:28:19 51°13.689 2°55.837 104.9 3.4 287 -999
2010-05-20 07:28:23 51°13.69 2°55.831 103.9 3.3 285 -999
2010-05-20 07:28:29 51°13.691 2°55.823 102.8 3.3 285 -999
2010-05-20 07:28:34 51°13.692 2°55.816 101.7 3.2 284 -999
2010-05-20 07:28:39 51°13.693 2°55.809 100.5 3.2 283 11.5
2010-05-20 07:28:43 51°13.694 2°55.803 99.6 3.2 282 -999
2010-05-20 07:28:48 51°13.695 2°55.797 98.8 3.1 281 12
2010-05-20 07:28:54 51°13.696 2°55.789 97.4 3 281 12.3
2010-05-20 07:28:59 51°13.696 2°55.783 95.9 3 280 -999
2010-05-20 07:29:03 51°13.697 2°55.778 94.5 2.9 279 -999
2010-05-20 07:29:09 51°13.698 2°55.77 93.2 2.8 278 -999
2010-05-20 07:29:13 51°13.698 2°55.765 92.1 2.7 277 13.5
2010-05-20 07:29:19 51°13.698 2°55.759 91.3 2.6 277 -999
2010-05-20 07:29:23 51°13.698 2°55.755 90.3 2.4 275 13.8
2010-05-20 07:29:28 51°13.698 2°55.75 89.1 2.2 276 13.7
2010-05-20 07:29:33 51°13.698 2°55.746 87.9 2 275 13.4
2010-05-20 07:29:38 51°13.699 2°55.742 86.1 1.8 275 13.4
2010-05-20 07:29:43 51°13.699 2°55.739 84.3 1.4 278 13.5
2010-05-20 07:29:47 51°13.7 2°55.737 82.1 1 281 13.4
2010-05-20 07:29:52 51°13.7 2°55.735 79.5 0.7 290 13.3
2010-05-20 07:29:57 51°13.7 2°55.735 75.7 0.5 300 13.3
2010-05-20 07:30:02 51°13.7 2°55.734 71.7 0.5 321 13.4
2010-05-20 07:30:07 51°13.701 2°55.734 67.7 0.5 342 13.3
2010-05-20 07:30:12 51°13.701 2°55.734 64 0.5 -999 13.3
2010-05-20 07:30:16 51°13.702 2°55.734 60.3 0.6 7 13.2
2010-05-20 07:30:21 51°13.703 2°55.734 56.5 0.7 13 13.2
2010-05-20 07:30:26 51°13.704 2°55.735 52.7 0.8 17 13.2
2010-05-20 07:30:31 51°13.706 2°55.735 48.9 0.8 18 13.2
2010-05-20 07:30:36 51°13.707 2°55.736 45.1 0.9 21 13.4
2010-05-20 07:30:41 51°13.709 2°55.736 41.5 0.9 15 13.7
2010-05-20 07:30:46 51°13.71 2°55.737 38.3 0.8 16 13.8
2010-05-20 07:30:51 51°13.711 2°55.737 35.8 0.6 7 13.9
2010-05-20 07:30:55 51°13.711 2°55.737 33.3 0.3 346 13.9
2010-05-20 07:31:00 51°13.711 2°55.736 30.6 0.3 265 13.9
2010-05-20 07:31:05 51°13.71 2°55.735 28.1 0.5 231 13.9
2010-05-20 07:31:10 51°13.71 2°55.734 26 0.8 217 13.8
2010-05-20 07:31:15 51°13.708 2°55.732 24.2 1 212 13.5
2010-05-20 07:31:20 51°13.707 2°55.731 22.6 1.1 212 13.4
2010-05-20 07:31:25 51°13.706 2°55.73 21.6 1 208 13.3
2010-05-20 07:31:31 51°13.704 2°55.729 20.4 0.9 211 -999
2010-05-20 07:31:36 51°13.704 2°55.728 19.1 0.6 214 -999
2010-05-20 07:31:42 51°13.703 2°55.727 17.1 0.3 250 -999
2010-05-20 07:31:48 51°13.704 2°55.727 14.4 0.3 335 -999
2010-05-20 07:31:54 51°13.705 2°55.726 10.5 0.7 350 -999
2010-05-20 07:31:59 51°13.706 2°55.726 5.9 1.1 353 -999
2010-05-20 07:32:03 51°13.708 2°55.725 359.8 1.3 349 -999
2010-05-20 07:32:09 51°13.71 2°55.725 355 1.6 349 -999
2010-05-20 07:32:14 51°13.713 2°55.723 350.9 2 344 -999
2010-05-20 07:32:19 51°13.716 2°55.722 347 2.5 342 4.8
2010-05-20 07:32:23 51°13.72 2°55.72 345.1 3.1 340 13.6
2010-05-20 07:32:28 51°13.724 2°55.717 342.9 3.5 338 13.6
2010-05-20 07:32:33 51°13.73 2°55.713 340.5 4.3 337 13.3
2010-05-20 07:32:38 51°13.735 2°55.709 338.9 4.8 335 13.2
2010-05-20 07:32:43 51°13.742 2°55.704 337.8 5.1 335 13.1
2010-05-20 07:32:47 51°13.748 2°55.7 337.4 5.5 335 12.7
2010-05-20 07:32:52 51°13.755 2°55.695 337.4 5.9 335 12.4
2010-05-20 07:32:57 51°13.764 2°55.689 337.8 6.3 336 12.3
2010-05-20 07:33:02 51°13.772 2°55.683 338.6 6.6 336 12.2
2010-05-20 07:33:07 51°13.781 2°55.677 339.5 6.9 337 12.2
2010-05-20 07:33:11 51°13.788 2°55.672 339.8 7.1 336 12.2
2010-05-20 07:33:17 51°13.799 2°55.664 339.4 7.2 336 12.1
2010-05-20 07:33:22 51°13.808 2°55.657 338.6 7.4 335 12.1
2010-05-20 07:33:26 51°13.816 2°55.651 337.6 7.6 335 12.1
2010-05-20 07:33:31 51°13.825 2°55.644 337.3 7.7 335 12
2010-05-20 07:33:35 51°13.833 2°55.638 337.3 7.9 335 12
2010-05-20 07:33:41 51°13.845 2°55.629 337.3 8 335 12
2010-05-20 07:33:46 51°13.856 2°55.622 337.4 8.1 335 12
2010-05-20 07:33:51 51°13.866 2°55.614 337.5 8.2 335 12
2010-05-20 07:33:55 51°13.874 2°55.608 337.6 8.2 335 11.9
2010-05-20 07:34:00 51°13.885 2°55.601 337.7 8.3 335 12.1
2010-05-20 07:34:05 51°13.895 2°55.593 337.7 8.4 335 12.1
2010-05-20 07:34:10 51°13.906 2°55.585 338.1 8.5 336 12.1
2010-05-20 07:34:15 51°13.917 2°55.578 338.5 8.5 336 12.1
2010-05-20 07:34:20 51°13.928 2°55.57 338.6 8.6 336 12
2010-05-20 07:34:25 51°13.938 2°55.562 338.2 8.6 335 12
2010-05-20 07:34:31 51°13.951 2°55.552 337.6 8.6 335 11.9
2010-05-20 07:34:35 51°13.96 2°55.545 337.1 8.7 334 11.9
2010-05-20 07:34:40 51°13.971 2°55.537 336.6 8.7 334 11.9
2010-05-20 07:34:45 51°13.981 2°55.529 336.4 8.7 334 11.9
2010-05-20 07:34:50 51°13.992 2°55.52 336.3 8.7 335 11.9
2010-05-20 07:34:55 51°14.003 2°55.512 336.8 8.7 335 11.9
2010-05-20 07:35:00 51°14.014 2°55.505 337.5 8.7 336 11.9
2010-05-20 07:35:05 51°14.025 2°55.497 338.5 8.7 337 11.9
2010-05-20 07:35:10 51°14.036 2°55.49 339.6 8.7 337 11.8
2010-05-20 07:35:15 51°14.047 2°55.482 339.8 8.7 337 11.9
2010-05-20 07:35:20 51°14.058 2°55.474 339.6 8.7 336 11.9
2010-05-20 07:35:25 51°14.069 2°55.466 339 8.7 336 11.8
2010-05-20 07:35:30 51°14.08 2°55.458 338.3 8.8 335 11.9
2010-05-20 07:35:35 51°14.091 2°55.449 336.9 8.8 334 11.9
2010-05-20 07:35:40 51°14.101 2°55.44 335.8 8.8 332 11.9
2010-05-20 07:35:45 51°14.112 2°55.431 334.4 8.8 331 11.8
2010-05-20 07:35:50 51°14.123 2°55.422 333.6 9 331 11.8
2010-05-20 07:35:55 51°14.134 2°55.412 333.1 9.1 331 11.8
2010-05-20 07:35:59 51°14.142 2°55.404 332.9 9.2 330 11.8
2010-05-20 07:36:05 51°14.156 2°55.391 332.5 9.3 330 11.8
2010-05-20 07:36:10 51°14.167 2°55.381 332.3 9.3 329 11.8
2010-05-20 07:36:15 51°14.178 2°55.37 331.9 9.4 329 11.8
2010-05-20 07:36:20 51°14.189 2°55.36 331.7 9.5 329 11.8
2010-05-20 07:36:25 51°14.2 2°55.349 331.5 9.5 328 11.8
2010-05-20 07:36:30 51°14.212 2°55.338 331.2 9.5 328 11.8
2010-05-20 07:36:35 51°14.223 2°55.326 331.1 9.7 328 12
2010-05-20 07:36:40 51°14.235 2°55.315 331.1 9.9 328 11.8
2010-05-20 07:36:45 51°14.246 2°55.304 331.1 10.1 328 11.9
2010-05-20 07:36:50 51°14.259 2°55.292 331.2 10.2 328 11.8
2010-05-20 07:36:55 51°14.271 2°55.28 331.2 10.3 328 11.6
2010-05-20 07:37:00 51°14.283 2°55.268 331.2 10.5 328 11.5
2010-05-20 07:37:05 51°14.296 2°55.255 331.4 10.7 329 11.6
2010-05-20 07:37:10 51°14.309 2°55.243 331.4 10.8 329 11.6
2010-05-20 07:37:15 51°14.322 2°55.23 331.5 11 329 11.9
2010-05-20 07:37:20 51°14.335 2°55.218 331.6 11.2 329 11.5
2010-05-20 07:37:25 51°14.348 2°55.205 331.7 11.3 329 11.5
2010-05-20 07:37:30 51°14.362 2°55.192 331.7 11.4 329 11.6
2010-05-20 07:37:35 51°14.376 2°55.179 332.1 11.6 330 11.4
2010-05-20 07:37:40 51°14.39 2°55.167 332.9 11.7 331 11.3
2010-05-20 07:37:45 51°14.404 2°55.154 333.8 11.9 332 11.9
2010-05-20 07:37:50 51°14.419 2°55.142 334.8 12 333 11.8
2010-05-20 07:37:55 51°14.434 2°55.13 336.2 12.1 334 11.8
2010-05-20 07:38:00 51°14.45 2°55.119 337.5 12.2 335 11.9
2010-05-20 07:38:05 51°14.465 2°55.107 338 12.2 333 11.5
2010-05-20 07:38:10 51°14.479 2°55.093 336.4 12.3 330 11.7
2010-05-20 07:38:15 51°14.493 2°55.078 333.6 12.2 327 11.8
2010-05-20 07:38:20 51°14.507 2°55.062 330.5 12.3 325 11.6